This is the latest recevied weather packets stored in our database for station/object W3JGB. If no packets are shown the sender has not sent any weather packets the latest 10 day(s).
| Time | Temp. | Humidity | Pressure | Rain* | Wind** | Luminosity | Snow |
|---|---|---|---|---|---|---|---|
| 1777821441 | 10° C | 45% | 1014.4 hPa | 0 mm | - | 116 W/m² | - |
| 1777821138 | 10° C | 46% | 1014.5 hPa | 0 mm | - | 138 W/m² | - |
| 1777806515 | 1.67° C | 85% | 1014.6 hPa | 0 mm | - | 21 W/m² | - |
| 1777806212 | 1.67° C | 85% | 1014.6 hPa | 0 mm | - | 21 W/m² | - |
| 1777805908 | 1.67° C | 85% | 1014.6 hPa | 0 mm | - | 21 W/m² | - |
| 1777805605 | 1.67° C | 85% | 1014.6 hPa | 0 mm | - | 19 W/m² | - |
| 1777805303 | 1.67° C | 85% | 1014.4 hPa | 0 mm | - | 16 W/m² | - |
| 1777805000 | 1.67° C | 85% | 1014.7 hPa | 0 mm | - | 16 W/m² | - |
| 1777804698 | 1.67° C | 84% | 1014.7 hPa | 0 mm | - | 14 W/m² | - |
| 1777804396 | 2.22° C | 84% | 1014.3 hPa | 0 mm | - | 11 W/m² | - |
| 1777804093 | 2.22° C | 83% | 1014.5 hPa | 0 mm | - | 10 W/m² | - |
| 1777803789 | 1.67° C | 85% | 1014.2 hPa | 0 mm | - | 8 W/m² | - |
| 1777803485 | 1.67° C | 86% | 1014.4 hPa | 0 mm | - | 5 W/m² | - |
| 1777803183 | 1.67° C | 85% | 1014.3 hPa | 0 mm | - | 3 W/m² | - |
| 1777802879 | 2.22° C | 82% | 1014.1 hPa | 0 mm | - | 2 W/m² | - |
| 1777802578 | 2.22° C | 83% | 1014.2 hPa | 0 mm | - | 0 W/m² | - |
| 1777802275 | 2.22° C | 83% | 1014.1 hPa | 0 mm | - | 0 W/m² | - |
| 1777801973 | 2.22° C | 81% | 1014 hPa | 0 mm | - | 0 W/m² | - |
| 1777801669 | 2.22° C | 78% | 1013.8 hPa | 0 mm | - | 0 W/m² | - |
| 1777801368 | 2.22° C | 80% | 1013.9 hPa | 0 mm | - | 0 W/m² | - |
| 1777801063 | 2.22° C | 78% | 1013.8 hPa | 0 mm | - | 0 W/m² | - |
| 1777800761 | 2.22° C | 77% | 1013.9 hPa | 0 mm | - | 0 W/m² | - |
| 1777800456 | 2.78° C | 78% | 1014 hPa | 0 mm | - | 0 W/m² | - |
| 1777800154 | 2.78° C | 77% | 1013.9 hPa | 0 mm | - | 0 W/m² | - |
| 1777799854 | 2.78° C | 76% | 1013.9 hPa | 0 mm | - | 0 W/m² | - |
* Rain latest hour (hover to see other rain measurements)
** Current wind speed in m/s (hover to see current wind gust speed)